sensor_id;sensor_type;location;lat;lon;timestamp;temperature;humidity
70246;SHT30;57637;49.272;8.590;2023-10-08T00:00:12;16.63;70.61
70246;SHT30;57637;49.272;8.590;2023-10-08T00:02:59;16.59;70.62
70246;SHT30;57637;49.272;8.590;2023-10-08T00:05:34;16.59;70.69
70246;SHT30;57637;49.272;8.590;2023-10-08T00:08:01;16.59;70.63
70246;SHT30;57637;49.272;8.590;2023-10-08T00:10:27;16.57;70.62
70246;SHT30;57637;49.272;8.590;2023-10-08T00:12:52;16.59;70.65
70246;SHT30;57637;49.272;8.590;2023-10-08T00:15:17;16.55;70.69
70246;SHT30;57637;49.272;8.590;2023-10-08T00:17:43;16.55;70.86
70246;SHT30;57637;49.272;8.590;2023-10-08T00:20:10;16.52;70.85
70246;SHT30;57637;49.272;8.590;2023-10-08T00:22:41;16.49;70.99
70246;SHT30;57637;49.272;8.590;2023-10-08T00:25:06;16.45;71.09
70246;SHT30;57637;49.272;8.590;2023-10-08T00:27:36;16.41;71.31
70246;SHT30;57637;49.272;8.590;2023-10-08T00:30:07;16.38;71.45
70246;SHT30;57637;49.272;8.590;2023-10-08T00:32:42;16.36;71.51
70246;SHT30;57637;49.272;8.590;2023-10-08T00:35:08;16.30;71.72
70246;SHT30;57637;49.272;8.590;2023-10-08T00:37:39;16.28;71.89
70246;SHT30;57637;49.272;8.590;2023-10-08T00:40:05;16.21;71.99
70246;SHT30;57637;49.272;8.590;2023-10-08T00:42:40;16.16;72.11
70246;SHT30;57637;49.272;8.590;2023-10-08T00:45:10;16.12;72.29
70246;SHT30;57637;49.272;8.590;2023-10-08T00:47:39;16.05;72.47
70246;SHT30;57637;49.272;8.590;2023-10-08T00:50:11;16.00;72.61
70246;SHT30;57637;49.272;8.590;2023-10-08T00:52:46;15.94;72.75
70246;SHT30;57637;49.272;8.590;2023-10-08T00:55:25;15.85;72.92
70246;SHT30;57637;49.272;8.590;2023-10-08T00:57:56;15.81;73.15
70246;SHT30;57637;49.272;8.590;2023-10-08T01:00:26;15.77;73.27
70246;SHT30;57637;49.272;8.590;2023-10-08T01:02:58;15.71;73.47
70246;SHT30;57637;49.272;8.590;2023-10-08T01:05:27;15.67;73.60
70246;SHT30;57637;49.272;8.590;2023-10-08T01:08:16;15.62;73.78
70246;SHT30;57637;49.272;8.590;2023-10-08T01:10:47;15.58;73.92
70246;SHT30;57637;49.272;8.590;2023-10-08T01:13:13;15.54;74.12
70246;SHT30;57637;49.272;8.590;2023-10-08T01:15:44;15.48;74.22
70246;SHT30;57637;49.272;8.590;2023-10-08T01:18:12;15.44;74.55
70246;SHT30;57637;49.272;8.590;2023-10-08T01:20:43;15.43;74.68
70246;SHT30;57637;49.272;8.590;2023-10-08T01:23:18;15.40;74.88
70246;SHT30;57637;49.272;8.590;2023-10-08T01:25:47;15.34;74.97
70246;SHT30;57637;49.272;8.590;2023-10-08T01:28:16;15.27;75.17
70246;SHT30;57637;49.272;8.590;2023-10-08T01:30:50;15.23;75.38
70246;SHT30;57637;49.272;8.590;2023-10-08T01:33:18;15.19;75.54
70246;SHT30;57637;49.272;8.590;2023-10-08T01:35:46;15.13;75.64
70246;SHT30;57637;49.272;8.590;2023-10-08T01:38:13;15.10;75.81
70246;SHT30;57637;49.272;8.590;2023-10-08T01:40:42;15.06;75.92
70246;SHT30;57637;49.272;8.590;2023-10-08T01:43:08;15.04;75.97
70246;SHT30;57637;49.272;8.590;2023-10-08T01:45:35;15.02;76.02
70246;SHT30;57637;49.272;8.590;2023-10-08T01:48:08;14.97;76.15
70246;SHT30;57637;49.272;8.590;2023-10-08T01:50:37;14.95;76.36
70246;SHT30;57637;49.272;8.590;2023-10-08T01:53:02;14.89;76.44
70246;SHT30;57637;49.272;8.590;2023-10-08T01:55:31;14.86;76.52
70246;SHT30;57637;49.272;8.590;2023-10-08T01:58:10;14.83;76.66
70246;SHT30;57637;49.272;8.590;2023-10-08T02:00:36;14.78;76.82
70246;SHT30;57637;49.272;8.590;2023-10-08T02:03:01;14.71;76.93
70246;SHT30;57637;49.272;8.590;2023-10-08T02:05:33;14.68;77.13
70246;SHT30;57637;49.272;8.590;2023-10-08T02:07:59;14.65;77.18
70246;SHT30;57637;49.272;8.590;2023-10-08T02:10:24;14.59;77.28
70246;SHT30;57637;49.272;8.590;2023-10-08T02:12:50;14.54;77.49
70246;SHT30;57637;49.272;8.590;2023-10-08T02:15:15;14.52;77.62
70246;SHT30;57637;49.272;8.590;2023-10-08T02:17:41;14.46;77.75
70246;SHT30;57637;49.272;8.590;2023-10-08T02:20:08;14.44;77.79
70246;SHT30;57637;49.272;8.590;2023-10-08T02:22:34;14.41;77.85
70246;SHT30;57637;49.272;8.590;2023-10-08T02:24:59;14.38;77.95
70246;SHT30;57637;49.272;8.590;2023-10-08T02:27:28;14.36;77.98
70246;SHT30;57637;49.272;8.590;2023-10-08T02:29:53;14.34;78.01
70246;SHT30;57637;49.272;8.590;2023-10-08T02:32:20;14.36;78.08
70246;SHT30;57637;49.272;8.590;2023-10-08T02:34:47;14.31;78.14
70246;SHT30;57637;49.272;8.590;2023-10-08T02:37:13;14.28;78.17
70246;SHT30;57637;49.272;8.590;2023-10-08T02:39:43;14.25;78.28
70246;SHT30;57637;49.272;8.590;2023-10-08T02:42:08;14.21;78.35
70246;SHT30;57637;49.272;8.590;2023-10-08T02:44:39;14.22;78.37
70246;SHT30;57637;49.272;8.590;2023-10-08T02:47:08;14.17;78.45
70246;SHT30;57637;49.272;8.590;2023-10-08T02:49:36;14.14;78.46
70246;SHT30;57637;49.272;8.590;2023-10-08T02:52:03;14.11;78.45
70246;SHT30;57637;49.272;8.590;2023-10-08T02:54:34;14.07;78.51
70246;SHT30;57637;49.272;8.590;2023-10-08T02:57:03;14.03;78.55
70246;SHT30;57637;49.272;8.590;2023-10-08T02:59:30;13.98;78.53
70246;SHT30;57637;49.272;8.590;2023-10-08T03:02:09;13.93;78.57
70246;SHT30;57637;49.272;8.590;2023-10-08T03:04:40;13.93;78.62
70246;SHT30;57637;49.272;8.590;2023-10-08T03:07:07;13.90;78.73
70246;SHT30;57637;49.272;8.590;2023-10-08T03:09:36;13.85;78.87
70246;SHT30;57637;49.272;8.590;2023-10-08T03:12:06;13.83;78.85
70246;SHT30;57637;49.272;8.590;2023-10-08T03:14:35;13.78;78.75
70246;SHT30;57637;49.272;8.590;2023-10-08T03:17:16;13.80;78.87
70246;SHT30;57637;49.272;8.590;2023-10-08T03:19:45;13.75;78.96
70246;SHT30;57637;49.272;8.590;2023-10-08T03:22:11;13.78;78.92
70246;SHT30;57637;49.272;8.590;2023-10-08T03:24:37;13.77;78.94
70246;SHT30;57637;49.272;8.590;2023-10-08T03:27:03;13.80;78.95
70246;SHT30;57637;49.272;8.590;2023-10-08T03:29:51;13.80;78.83
70246;SHT30;57637;49.272;8.590;2023-10-08T03:32:19;13.81;78.72
70246;SHT30;57637;49.272;8.590;2023-10-08T03:34:51;13.78;78.65
70246;SHT30;57637;49.272;8.590;2023-10-08T03:37:20;13.74;78.60
70246;SHT30;57637;49.272;8.590;2023-10-08T03:39:54;13.75;78.65
70246;SHT30;57637;49.272;8.590;2023-10-08T03:42:32;13.75;78.47
70246;SHT30;57637;49.272;8.590;2023-10-08T03:45:05;13.74;78.39
70246;SHT30;57637;49.272;8.590;2023-10-08T03:47:40;13.74;78.31
70246;SHT30;57637;49.272;8.590;2023-10-08T03:50:18;13.71;78.19
70246;SHT30;57637;49.272;8.590;2023-10-08T03:52:43;13.78;77.75
70246;SHT30;57637;49.272;8.590;2023-10-08T03:55:09;13.81;77.54
70246;SHT30;57637;49.272;8.590;2023-10-08T03:57:46;13.87;77.32
70246;SHT30;57637;49.272;8.590;2023-10-08T04:00:14;13.91;77.07
70246;SHT30;57637;49.272;8.590;2023-10-08T04:02:46;13.90;76.67
70246;SHT30;57637;49.272;8.590;2023-10-08T04:05:19;13.95;76.46
70246;SHT30;57637;49.272;8.590;2023-10-08T04:07:47;13.98;76.26
70246;SHT30;57637;49.272;8.590;2023-10-08T04:10:25;14.04;75.85
70246;SHT30;57637;49.272;8.590;2023-10-08T04:13:03;14.10;75.52
70246;SHT30;57637;49.272;8.590;2023-10-08T04:15:33;14.11;75.34
70246;SHT30;57637;49.272;8.590;2023-10-08T04:17:59;14.11;75.16
70246;SHT30;57637;49.272;8.590;2023-10-08T04:20:27;14.13;75.18
70246;SHT30;57637;49.272;8.590;2023-10-08T04:23:03;14.13;75.07
70246;SHT30;57637;49.272;8.590;2023-10-08T04:25:30;14.11;74.99
70246;SHT30;57637;49.272;8.590;2023-10-08T04:27:58;14.14;74.99
70246;SHT30;57637;49.272;8.590;2023-10-08T04:30:28;14.13;74.99
70246;SHT30;57637;49.272;8.590;2023-10-08T04:35:33;14.10;74.90
70246;SHT30;57637;49.272;8.590;2023-10-08T04:38:02;14.18;74.48
70246;SHT30;57637;49.272;8.590;2023-10-08T04:40:34;14.14;74.64
70246;SHT30;57637;49.272;8.590;2023-10-08T04:43:06;14.14;74.65
70246;SHT30;57637;49.272;8.590;2023-10-08T04:45:35;14.13;74.75
70246;SHT30;57637;49.272;8.590;2023-10-08T04:48:03;14.10;74.87
70246;SHT30;57637;49.272;8.590;2023-10-08T04:50:34;14.05;74.94
70246;SHT30;57637;49.272;8.590;2023-10-08T04:53:01;14.04;74.99
70246;SHT30;57637;49.272;8.590;2023-10-08T04:55:33;14.03;75.05
70246;SHT30;57637;49.272;8.590;2023-10-08T04:57:59;13.94;75.23
70246;SHT30;57637;49.272;8.590;2023-10-08T05:00:27;13.93;75.37
70246;SHT30;57637;49.272;8.590;2023-10-08T05:03:19;13.88;75.39
70246;SHT30;57637;49.272;8.590;2023-10-08T05:05:47;13.83;75.61
70246;SHT30;57637;49.272;8.590;2023-10-08T05:08:31;13.80;75.71
70246;SHT30;57637;49.272;8.590;2023-10-08T05:11:35;13.75;75.84
70246;SHT30;57637;49.272;8.590;2023-10-08T05:14:22;13.73;76.02
70246;SHT30;57637;49.272;8.590;2023-10-08T05:17:01;13.71;76.06
70246;SHT30;57637;49.272;8.590;2023-10-08T05:19:34;13.71;76.09
70246;SHT30;57637;49.272;8.590;2023-10-08T05:22:14;13.70;76.16
70246;SHT30;57637;49.272;8.590;2023-10-08T05:24:53;13.69;76.22
70246;SHT30;57637;49.272;8.590;2023-10-08T05:27:38;13.64;76.34
70246;SHT30;57637;49.272;8.590;2023-10-08T05:30:14;13.69;76.47
70246;SHT30;57637;49.272;8.590;2023-10-08T05:32:52;13.67;76.49
70246;SHT30;57637;49.272;8.590;2023-10-08T05:35:37;13.66;76.60
70246;SHT30;57637;49.272;8.590;2023-10-08T05:38:11;13.66;76.76
70246;SHT30;57637;49.272;8.590;2023-10-08T05:40:44;13.69;76.94
70246;SHT30;57637;49.272;8.590;2023-10-08T05:43:39;13.64;76.98
70246;SHT30;57637;49.272;8.590;2023-10-08T05:46:05;13.66;77.01
70246;SHT30;57637;49.272;8.590;2023-10-08T05:48:46;13.66;77.00
70246;SHT30;57637;49.272;8.590;2023-10-08T05:51:26;13.70;76.86
70246;SHT30;57637;49.272;8.590;2023-10-08T05:54:30;13.75;77.08
70246;SHT30;57637;49.272;8.590;2023-10-08T05:57:04;13.78;76.77
70246;SHT30;57637;49.272;8.590;2023-10-08T05:59:37;13.81;76.57
70246;SHT30;57637;49.272;8.590;2023-10-08T06:02:24;13.81;76.36
70246;SHT30;57637;49.272;8.590;2023-10-08T06:07:44;13.84;76.34
70246;SHT30;57637;49.272;8.590;2023-10-08T06:10:20;13.90;76.30
70246;SHT30;57637;49.272;8.590;2023-10-08T06:13:00;13.95;76.13
70246;SHT30;57637;49.272;8.590;2023-10-08T06:18:13;14.10;75.87
70246;SHT30;57637;49.272;8.590;2023-10-08T06:20:52;14.15;75.72
70246;SHT30;57637;49.272;8.590;2023-10-08T06:23:23;14.31;75.43
70246;SHT30;57637;49.272;8.590;2023-10-08T06:25:50;14.46;75.00
70246;SHT30;57637;49.272;8.590;2023-10-08T06:28:23;14.65;74.54
70246;SHT30;57637;49.272;8.590;2023-10-08T06:30:51;14.80;74.41
70246;SHT30;57637;49.272;8.590;2023-10-08T06:33:22;15.02;73.88
70246;SHT30;57637;49.272;8.590;2023-10-08T06:35:50;15.11;73.56
70246;SHT30;57637;49.272;8.590;2023-10-08T06:38:33;15.30;73.19
70246;SHT30;57637;49.272;8.590;2023-10-08T06:41:00;15.48;72.72
70246;SHT30;57637;49.272;8.590;2023-10-08T06:43:31;15.61;72.37
70246;SHT30;57637;49.272;8.590;2023-10-08T06:45:59;15.70;72.63
70246;SHT30;57637;49.272;8.590;2023-10-08T06:48:25;15.65;72.63
70246;SHT30;57637;49.272;8.590;2023-10-08T06:50:51;15.67;72.68
70246;SHT30;57637;49.272;8.590;2023-10-08T06:53:31;15.60;72.63
70246;SHT30;57637;49.272;8.590;2023-10-08T06:55:57;15.58;72.69
70246;SHT30;57637;49.272;8.590;2023-10-08T06:58:23;15.61;72.71
70246;SHT30;57637;49.272;8.590;2023-10-08T07:00:49;15.62;72.70
70246;SHT30;57637;49.272;8.590;2023-10-08T07:03:16;15.64;72.89
70246;SHT30;57637;49.272;8.590;2023-10-08T07:05:43;15.67;72.80
70246;SHT30;57637;49.272;8.590;2023-10-08T07:08:28;15.72;72.82
70246;SHT30;57637;49.272;8.590;2023-10-08T07:10:56;15.71;72.40
70246;SHT30;57637;49.272;8.590;2023-10-08T07:13:24;15.77;72.65
70246;SHT30;57637;49.272;8.590;2023-10-08T07:15:49;15.78;72.74
70246;SHT30;57637;49.272;8.590;2023-10-08T07:18:15;15.85;72.68
70246;SHT30;57637;49.272;8.590;2023-10-08T07:20:50;15.97;72.39
70246;SHT30;57637;49.272;8.590;2023-10-08T07:23:19;16.04;72.09
70246;SHT30;57637;49.272;8.590;2023-10-08T07:25:52;16.22;71.89
70246;SHT30;57637;49.272;8.590;2023-10-08T07:28:19;16.29;71.53
70246;SHT30;57637;49.272;8.590;2023-10-08T07:30:45;16.59;71.20
70246;SHT30;57637;49.272;8.590;2023-10-08T07:33:14;16.67;70.74
70246;SHT30;57637;49.272;8.590;2023-10-08T07:35:47;16.74;70.38
70246;SHT30;57637;49.272;8.590;2023-10-08T07:38:23;16.59;70.87
70246;SHT30;57637;49.272;8.590;2023-10-08T07:40:55;16.80;70.82
70246;SHT30;57637;49.272;8.590;2023-10-08T07:43:21;16.97;70.20
70246;SHT30;57637;49.272;8.590;2023-10-08T07:45:47;17.25;69.75
70246;SHT30;57637;49.272;8.590;2023-10-08T07:48:12;17.59;69.63
70246;SHT30;57637;49.272;8.590;2023-10-08T07:50:44;17.76;69.35
70246;SHT30;57637;49.272;8.590;2023-10-08T07:53:11;17.97;69.32
70246;SHT30;57637;49.272;8.590;2023-10-08T07:55:44;18.14;68.78
70246;SHT30;57637;49.272;8.590;2023-10-08T07:58:12;18.30;67.49
70246;SHT30;57637;49.272;8.590;2023-10-08T08:00:39;18.61;67.20
70246;SHT30;57637;49.272;8.590;2023-10-08T08:03:06;19.16;66.36
70246;SHT30;57637;49.272;8.590;2023-10-08T08:05:32;19.45;65.13
70246;SHT30;57637;49.272;8.590;2023-10-08T08:08:00;19.65;64.01
70246;SHT30;57637;49.272;8.590;2023-10-08T08:10:32;19.97;63.91
70246;SHT30;57637;49.272;8.590;2023-10-08T08:13:02;19.97;63.97
70246;SHT30;57637;49.272;8.590;2023-10-08T08:15:31;20.28;62.93
70246;SHT30;57637;49.272;8.590;2023-10-08T08:17:58;20.40;63.35
70246;SHT30;57637;49.272;8.590;2023-10-08T08:20:25;20.55;62.59
70246;SHT30;57637;49.272;8.590;2023-10-08T08:23:03;20.45;62.79
70246;SHT30;57637;49.272;8.590;2023-10-08T08:25:38;20.44;63.42
70246;SHT30;57637;49.272;8.590;2023-10-08T08:28:22;20.31;63.37
70246;SHT30;57637;49.272;8.590;2023-10-08T08:30:50;20.31;63.55
70246;SHT30;57637;49.272;8.590;2023-10-08T08:33:20;20.37;63.81
70246;SHT30;57637;49.272;8.590;2023-10-08T08:35:58;20.52;63.26
70246;SHT30;57637;49.272;8.590;2023-10-08T08:38:25;20.49;63.33
70246;SHT30;57637;49.272;8.590;2023-10-08T08:40:51;20.64;63.14
70246;SHT30;57637;49.272;8.590;2023-10-08T08:43:17;20.68;63.14
70246;SHT30;57637;49.272;8.590;2023-10-08T08:45:44;20.65;63.36
70246;SHT30;57637;49.272;8.590;2023-10-08T08:48:10;20.48;63.84
70246;SHT30;57637;49.272;8.590;2023-10-08T08:50:37;20.61;65.08
70246;SHT30;57637;49.272;8.590;2023-10-08T08:53:03;20.52;64.25
70246;SHT30;57637;49.272;8.590;2023-10-08T08:55:31;20.65;64.12
70246;SHT30;57637;49.272;8.590;2023-10-08T08:57:57;20.68;63.65
70246;SHT30;57637;49.272;8.590;2023-10-08T09:00:25;20.59;63.86
70246;SHT30;57637;49.272;8.590;2023-10-08T09:02:54;20.64;63.93
70246;SHT30;57637;49.272;8.590;2023-10-08T09:05:20;20.72;63.62
70246;SHT30;57637;49.272;8.590;2023-10-08T09:07:59;20.78;63.70
70246;SHT30;57637;49.272;8.590;2023-10-08T09:10:30;20.94;63.65
70246;SHT30;57637;49.272;8.590;2023-10-08T09:13:02;21.06;63.42
70246;SHT30;57637;49.272;8.590;2023-10-08T09:15:29;21.03;62.95
70246;SHT30;57637;49.272;8.590;2023-10-08T09:17:55;21.13;63.09
70246;SHT30;57637;49.272;8.590;2023-10-08T09:20:22;21.06;62.94
70246;SHT30;57637;49.272;8.590;2023-10-08T09:23:07;20.91;63.67
70246;SHT30;57637;49.272;8.590;2023-10-08T09:25:43;20.85;64.01
70246;SHT30;57637;49.272;8.590;2023-10-08T09:28:10;20.82;64.25
70246;SHT30;57637;49.272;8.590;2023-10-08T09:30:39;20.95;63.82
70246;SHT30;57637;49.272;8.590;2023-10-08T09:33:09;20.86;63.80
70246;SHT30;57637;49.272;8.590;2023-10-08T09:35:35;20.95;63.95
70246;SHT30;57637;49.272;8.590;2023-10-08T09:38:05;20.92;64.21
70246;SHT30;57637;49.272;8.590;2023-10-08T09:40:38;21.06;64.05
70246;SHT30;57637;49.272;8.590;2023-10-08T09:43:11;21.25;63.64
70246;SHT30;57637;49.272;8.590;2023-10-08T09:45:38;21.27;63.35
70246;SHT30;57637;49.272;8.590;2023-10-08T09:48:10;21.46;63.24
70246;SHT30;57637;49.272;8.590;2023-10-08T09:50:38;21.73;63.25
70246;SHT30;57637;49.272;8.590;2023-10-08T09:53:09;22.00;62.52
70246;SHT30;57637;49.272;8.590;2023-10-08T09:55:44;22.17;61.65
70246;SHT30;57637;49.272;8.590;2023-10-08T09:58:13;22.32;61.81
70246;SHT30;57637;49.272;8.590;2023-10-08T10:00:41;22.32;61.95
70246;SHT30;57637;49.272;8.590;2023-10-08T10:03:09;22.53;61.96
70246;SHT30;57637;49.272;8.590;2023-10-08T10:05:37;22.63;61.33
70246;SHT30;57637;49.272;8.590;2023-10-08T10:08:03;22.58;60.67
70246;SHT30;57637;49.272;8.590;2023-10-08T10:10:35;22.53;59.97
70246;SHT30;57637;49.272;8.590;2023-10-08T10:13:03;22.34;60.67
70246;SHT30;57637;49.272;8.590;2023-10-08T10:15:33;22.37;60.28
70246;SHT30;57637;49.272;8.590;2023-10-08T10:18:09;22.65;60.21
70246;SHT30;57637;49.272;8.590;2023-10-08T10:23:35;22.92;59.90
70246;SHT30;57637;49.272;8.590;2023-10-08T10:26:05;23.09;59.87
70246;SHT30;57637;49.272;8.590;2023-10-08T10:31:48;23.47;58.65
70246;SHT30;57637;49.272;8.590;2023-10-08T10:34:18;23.58;58.64
70246;SHT30;57637;49.272;8.590;2023-10-08T10:36:46;23.39;58.90
70246;SHT30;57637;49.272;8.590;2023-10-08T10:39:20;23.54;58.16
70246;SHT30;57637;49.272;8.590;2023-10-08T10:41:56;23.34;57.51
70246;SHT30;57637;49.272;8.590;2023-10-08T10:44:23;23.61;57.05
70246;SHT30;57637;49.272;8.590;2023-10-08T10:46:50;23.67;57.39
70246;SHT30;57637;49.272;8.590;2023-10-08T10:49:19;23.82;56.99
70246;SHT30;57637;49.272;8.590;2023-10-08T10:51:57;23.89;56.92
70246;SHT30;57637;49.272;8.590;2023-10-08T10:54:25;23.94;56.59
70246;SHT30;57637;49.272;8.590;2023-10-08T10:56:52;23.86;57.00
70246;SHT30;57637;49.272;8.590;2023-10-08T10:59:33;23.84;56.04
70246;SHT30;57637;49.272;8.590;2023-10-08T11:02:05;23.98;56.07
70246;SHT30;57637;49.272;8.590;2023-10-08T11:04:46;23.95;56.52
70246;SHT30;57637;49.272;8.590;2023-10-08T11:07:18;24.00;57.23
70246;SHT30;57637;49.272;8.590;2023-10-08T11:09:52;24.02;56.77
70246;SHT30;57637;49.272;8.590;2023-10-08T11:12:20;23.88;56.79
70246;SHT30;57637;49.272;8.590;2023-10-08T11:14:57;23.81;57.08
70246;SHT30;57637;49.272;8.590;2023-10-08T11:17:24;23.81;57.16
70246;SHT30;57637;49.272;8.590;2023-10-08T11:19:51;23.75;57.15
70246;SHT30;57637;49.272;8.590;2023-10-08T11:22:17;23.81;56.93
70246;SHT30;57637;49.272;8.590;2023-10-08T11:24:44;23.86;56.61
70246;SHT30;57637;49.272;8.590;2023-10-08T11:27:14;23.88;56.97
70246;SHT30;57637;49.272;8.590;2023-10-08T11:29:45;23.75;56.91
70246;SHT30;57637;49.272;8.590;2023-10-08T11:32:12;23.78;57.01
70246;SHT30;57637;49.272;8.590;2023-10-08T11:34:42;23.78;56.87
70246;SHT30;57637;49.272;8.590;2023-10-08T11:37:14;23.89;57.72
70246;SHT30;57637;49.272;8.590;2023-10-08T11:39:51;23.93;57.09
70246;SHT30;57637;49.272;8.590;2023-10-08T11:42:18;23.95;57.23
70246;SHT30;57637;49.272;8.590;2023-10-08T11:45:01;24.04;56.86
70246;SHT30;57637;49.272;8.590;2023-10-08T11:47:49;24.15;56.34
70246;SHT30;57637;49.272;8.590;2023-10-08T11:50:26;24.16;56.26
70246;SHT30;57637;49.272;8.590;2023-10-08T11:53:02;24.19;56.17
70246;SHT30;57637;49.272;8.590;2023-10-08T11:55:28;24.21;55.99
70246;SHT30;57637;49.272;8.590;2023-10-08T11:57:59;24.25;56.04
70246;SHT30;57637;49.272;8.590;2023-10-08T12:00:25;24.21;55.72
70246;SHT30;57637;49.272;8.590;2023-10-08T12:02:51;24.33;55.97
70246;SHT30;57637;49.272;8.590;2023-10-08T12:05:19;24.42;55.34
70246;SHT30;57637;49.272;8.590;2023-10-08T12:07:49;24.48;55.57
70246;SHT30;57637;49.272;8.590;2023-10-08T12:10:21;24.21;55.23
70246;SHT30;57637;49.272;8.590;2023-10-08T12:12:52;24.43;55.58
70246;SHT30;57637;49.272;8.590;2023-10-08T12:15:19;24.60;55.41
70246;SHT30;57637;49.272;8.590;2023-10-08T12:17:48;24.11;54.81
70246;SHT30;57637;49.272;8.590;2023-10-08T12:20:36;24.33;55.55
70246;SHT30;57637;49.272;8.590;2023-10-08T12:23:06;24.37;54.97
70246;SHT30;57637;49.272;8.590;2023-10-08T12:25:35;24.35;55.08
70246;SHT30;57637;49.272;8.590;2023-10-08T12:28:02;24.32;55.16
70246;SHT30;57637;49.272;8.590;2023-10-08T12:30:36;24.55;55.00
70246;SHT30;57637;49.272;8.590;2023-10-08T12:33:07;24.66;54.68
70246;SHT30;57637;49.272;8.590;2023-10-08T12:35:35;24.40;53.99
70246;SHT30;57637;49.272;8.590;2023-10-08T12:38:02;24.33;54.65
70246;SHT30;57637;49.272;8.590;2023-10-08T12:40:27;24.29;54.57
70246;SHT30;57637;49.272;8.590;2023-10-08T12:43:07;24.37;55.23
70246;SHT30;57637;49.272;8.590;2023-10-08T12:45:32;24.40;54.68
70246;SHT30;57637;49.272;8.590;2023-10-08T12:47:58;24.48;55.34
70246;SHT30;57637;49.272;8.590;2023-10-08T12:50:24;24.63;54.87
70246;SHT30;57637;49.272;8.590;2023-10-08T12:53:07;24.72;54.63
70246;SHT30;57637;49.272;8.590;2023-10-08T12:55:36;24.86;54.15
70246;SHT30;57637;49.272;8.590;2023-10-08T12:58:05;24.87;54.37
70246;SHT30;57637;49.272;8.590;2023-10-08T13:00:36;24.98;54.16
70246;SHT30;57637;49.272;8.590;2023-10-08T13:03:14;25.13;53.79
70246;SHT30;57637;49.272;8.590;2023-10-08T13:05:48;25.16;53.90
70246;SHT30;57637;49.272;8.590;2023-10-08T13:08:18;25.18;53.66
70246;SHT30;57637;49.272;8.590;2023-10-08T13:10:45;25.17;54.02
70246;SHT30;57637;49.272;8.590;2023-10-08T13:13:14;25.04;53.36
70246;SHT30;57637;49.272;8.590;2023-10-08T13:15:40;24.86;53.65
70246;SHT30;57637;49.272;8.590;2023-10-08T13:18:07;24.76;54.09
70246;SHT30;57637;49.272;8.590;2023-10-08T13:20:32;24.87;54.36
70246;SHT30;57637;49.272;8.590;2023-10-08T13:23:02;24.76;54.07
70246;SHT30;57637;49.272;8.590;2023-10-08T13:25:29;24.72;54.64
70246;SHT30;57637;49.272;8.590;2023-10-08T13:27:58;24.91;54.35
70246;SHT30;57637;49.272;8.590;2023-10-08T13:30:25;24.90;54.06
70246;SHT30;57637;49.272;8.590;2023-10-08T13:32:52;24.87;53.78
70246;SHT30;57637;49.272;8.590;2023-10-08T13:35:18;24.84;53.92
70246;SHT30;57637;49.272;8.590;2023-10-08T13:37:46;24.83;53.84
70246;SHT30;57637;49.272;8.590;2023-10-08T13:40:14;24.76;54.05
70246;SHT30;57637;49.272;8.590;2023-10-08T13:42:43;24.76;53.68
70246;SHT30;57637;49.272;8.590;2023-10-08T13:45:09;24.79;54.11
70246;SHT30;57637;49.272;8.590;2023-10-08T13:47:41;24.73;54.39
70246;SHT30;57637;49.272;8.590;2023-10-08T13:50:07;24.88;54.71
70246;SHT30;57637;49.272;8.590;2023-10-08T13:52:37;25.07;54.65
70246;SHT30;57637;49.272;8.590;2023-10-08T13:55:05;25.17;54.10
70246;SHT30;57637;49.272;8.590;2023-10-08T13:57:32;25.20;53.36
70246;SHT30;57637;49.272;8.590;2023-10-08T13:59:58;25.27;53.63
70246;SHT30;57637;49.272;8.590;2023-10-08T14:02:25;25.33;53.95
70246;SHT30;57637;49.272;8.590;2023-10-08T14:04:50;25.38;54.09
70246;SHT30;57637;49.272;8.590;2023-10-08T14:07:15;25.44;53.93
70246;SHT30;57637;49.272;8.590;2023-10-08T14:09:45;25.37;53.88
70246;SHT30;57637;49.272;8.590;2023-10-08T14:12:11;25.18;53.26
70246;SHT30;57637;49.272;8.590;2023-10-08T14:14:39;25.00;53.69
70246;SHT30;57637;49.272;8.590;2023-10-08T14:17:11;25.06;53.33
70246;SHT30;57637;49.272;8.590;2023-10-08T14:19:40;25.10;53.70
70246;SHT30;57637;49.272;8.590;2023-10-08T14:22:16;25.00;53.79
70246;SHT30;57637;49.272;8.590;2023-10-08T14:24:44;24.48;54.85
70246;SHT30;57637;49.272;8.590;2023-10-08T14:27:24;24.88;54.48
70246;SHT30;57637;49.272;8.590;2023-10-08T14:29:56;25.07;54.46
70246;SHT30;57637;49.272;8.590;2023-10-08T14:32:26;25.14;54.59
70246;SHT30;57637;49.272;8.590;2023-10-08T14:34:52;25.10;55.23
70246;SHT30;57637;49.272;8.590;2023-10-08T14:37:21;24.90;55.29
70246;SHT30;57637;49.272;8.590;2023-10-08T14:40:06;24.82;54.19
70246;SHT30;57637;49.272;8.590;2023-10-08T14:42:50;24.42;55.91
70246;SHT30;57637;49.272;8.590;2023-10-08T14:45:25;24.59;55.75
70246;SHT30;57637;49.272;8.590;2023-10-08T14:47:53;24.28;55.89
70246;SHT30;57637;49.272;8.590;2023-10-08T14:50:22;24.29;55.79
70246;SHT30;57637;49.272;8.590;2023-10-08T14:52:48;24.42;55.62
70246;SHT30;57637;49.272;8.590;2023-10-08T14:55:14;24.24;55.95
70246;SHT30;57637;49.272;8.590;2023-10-08T14:57:40;24.56;55.51
70246;SHT30;57637;49.272;8.590;2023-10-08T15:00:07;24.84;55.12
70246;SHT30;57637;49.272;8.590;2023-10-08T15:02:34;25.07;54.14
70246;SHT30;57637;49.272;8.590;2023-10-08T15:04:59;25.03;54.57
70246;SHT30;57637;49.272;8.590;2023-10-08T15:07:29;25.14;54.18
70246;SHT30;57637;49.272;8.590;2023-10-08T15:09:54;25.20;53.96
70246;SHT30;57637;49.272;8.590;2023-10-08T15:12:23;24.65;54.92
70246;SHT30;57637;49.272;8.590;2023-10-08T15:14:50;24.84;54.85
70246;SHT30;57637;49.272;8.590;2023-10-08T15:17:16;24.87;55.04
70246;SHT30;57637;49.272;8.590;2023-10-08T15:19:44;24.75;55.15
70246;SHT30;57637;49.272;8.590;2023-10-08T15:22:11;24.73;55.45
70246;SHT30;57637;49.272;8.590;2023-10-08T15:24:37;24.39;55.77
70246;SHT30;57637;49.272;8.590;2023-10-08T15:27:04;24.52;55.94
70246;SHT30;57637;49.272;8.590;2023-10-08T15:29:30;24.57;55.82
70246;SHT30;57637;49.272;8.590;2023-10-08T15:31:56;24.60;55.90
70246;SHT30;57637;49.272;8.590;2023-10-08T15:34:22;24.33;56.73
70246;SHT30;57637;49.272;8.590;2023-10-08T15:36:49;24.43;56.20
70246;SHT30;57637;49.272;8.590;2023-10-08T15:39:14;24.42;56.44
70246;SHT30;57637;49.272;8.590;2023-10-08T15:41:47;24.37;56.34
70246;SHT30;57637;49.272;8.590;2023-10-08T15:44:13;24.30;56.58
70246;SHT30;57637;49.272;8.590;2023-10-08T15:46:39;24.28;56.40
70246;SHT30;57637;49.272;8.590;2023-10-08T15:49:04;24.26;55.87
70246;SHT30;57637;49.272;8.590;2023-10-08T15:51:30;24.16;57.10
70246;SHT30;57637;49.272;8.590;2023-10-08T15:53:59;24.00;58.08
70246;SHT30;57637;49.272;8.590;2023-10-08T15:56:25;23.86;58.66
70246;SHT30;57637;49.272;8.590;2023-10-08T15:58:52;23.75;58.80
70246;SHT30;57637;49.272;8.590;2023-10-08T16:01:21;23.70;59.22
70246;SHT30;57637;49.272;8.590;2023-10-08T16:03:47;23.60;59.49